createdAt,value
2022-12-19T00:00:11.934Z,974.53
2022-12-19T00:01:08.289Z,974.66
2022-12-19T00:02:08.293Z,974.58
2022-12-19T00:03:08.329Z,974.58
2022-12-19T00:04:09.039Z,974.64
2022-12-19T00:05:08.053Z,974.68
2022-12-19T00:06:07.984Z,974.64
2022-12-19T00:07:08.031Z,974.60
2022-12-19T00:08:14.525Z,974.64
2022-12-19T00:09:07.824Z,974.69
2022-12-19T00:10:07.732Z,974.77
2022-12-19T00:11:07.677Z,974.62
2022-12-19T00:12:07.654Z,974.58
2022-12-19T00:13:07.538Z,974.57
2022-12-19T00:14:07.487Z,974.64
2022-12-19T00:15:07.418Z,974.52
2022-12-19T00:16:07.415Z,974.51
2022-12-19T00:17:07.321Z,974.43
2022-12-19T00:18:07.302Z,974.46
2022-12-19T00:19:07.186Z,974.45
2022-12-19T00:20:07.117Z,974.48
2022-12-19T00:21:07.066Z,974.51
2022-12-19T00:22:11.071Z,974.50
2022-12-19T00:23:07.007Z,974.51
2022-12-19T00:24:20.441Z,974.33
2022-12-19T00:25:06.815Z,974.38
2022-12-19T00:26:06.755Z,974.36
2022-12-19T00:27:06.669Z,974.29
2022-12-19T00:28:06.636Z,974.35
2022-12-19T00:29:11.188Z,974.29
2022-12-19T00:30:06.485Z,974.26
2022-12-19T00:31:06.476Z,974.27
2022-12-19T00:32:06.410Z,974.22
2022-12-19T00:33:06.306Z,974.16
2022-12-19T00:34:06.278Z,974.13
2022-12-19T00:35:06.190Z,974.11
2022-12-19T00:36:06.142Z,974.14
2022-12-19T00:37:06.075Z,974.16
2022-12-19T00:38:06.015Z,974.15
2022-12-19T00:39:08.173Z,974.17
2022-12-19T00:40:05.897Z,974.03
2022-12-19T00:41:05.807Z,974.15
2022-12-19T00:42:05.762Z,974.15
2022-12-19T00:43:05.689Z,974.21
2022-12-19T00:44:05.627Z,974.25
2022-12-19T00:45:05.621Z,974.19
2022-12-19T00:46:05.583Z,974.24
2022-12-19T00:47:05.431Z,974.31
2022-12-19T00:48:05.390Z,974.27
2022-12-19T00:49:05.318Z,974.42
2022-12-19T00:50:05.251Z,974.30
2022-12-19T00:51:05.218Z,974.33
2022-12-19T00:52:05.132Z,974.26
2022-12-19T00:53:05.064Z,974.31
2022-12-19T00:54:06.597Z,974.16
2022-12-19T00:55:06.800Z,974.25
2022-12-19T00:56:04.877Z,974.15
2022-12-19T00:57:04.868Z,974.10
2022-12-19T00:58:04.762Z,974.09
2022-12-19T00:59:04.724Z,974.05
2022-12-19T01:00:04.651Z,974.05
2022-12-19T01:01:04.599Z,974.03
2022-12-19T01:02:04.681Z,973.96
2022-12-19T01:03:04.469Z,973.97
2022-12-19T01:04:27.778Z,973.95
2022-12-19T01:05:04.366Z,973.97
2022-12-19T01:06:04.265Z,974.00
2022-12-19T01:07:04.211Z,973.94
2022-12-19T01:08:04.145Z,973.94
2022-12-19T01:09:04.118Z,973.84
2022-12-19T01:10:04.031Z,973.90
2022-12-19T01:11:04.054Z,973.90
2022-12-19T01:12:03.903Z,973.93
2022-12-19T01:13:03.870Z,973.87
2022-12-19T01:14:03.794Z,973.98
2022-12-19T01:15:04.978Z,973.95
2022-12-19T01:16:03.712Z,973.92
2022-12-19T01:17:03.621Z,973.98
2022-12-19T01:18:03.534Z,974.05
2022-12-19T01:19:03.477Z,973.98
2022-12-19T01:20:03.397Z,974.01
2022-12-19T01:21:03.351Z,974.04
2022-12-19T01:22:03.300Z,974.04
2022-12-19T01:23:03.218Z,974.08
2022-12-19T01:24:03.162Z,974.10
2022-12-19T01:25:03.081Z,974.10
2022-12-19T01:26:03.070Z,974.07
2022-12-19T01:27:03.071Z,974.04
2022-12-19T01:28:02.907Z,974.11
2022-12-19T01:29:02.858Z,974.11
2022-12-19T01:30:02.781Z,974.12
2022-12-19T01:31:02.749Z,974.09
2022-12-19T01:32:02.805Z,974.07
2022-12-19T01:33:02.603Z,974.11
2022-12-19T01:34:02.570Z,974.10
2022-12-19T01:35:02.476Z,974.09
2022-12-19T01:36:02.402Z,974.06
2022-12-19T01:37:02.337Z,974.04
2022-12-19T01:38:08.494Z,974.06
2022-12-19T01:39:02.229Z,973.95
2022-12-19T01:40:02.188Z,974.05
2022-12-19T01:41:02.141Z,974.06
2022-12-19T01:42:02.050Z,973.97
2022-12-19T01:43:02.061Z,974.00
2022-12-19T01:44:01.952Z,974.03
2022-12-19T01:45:01.886Z,973.91
2022-12-19T01:46:01.838Z,973.98
2022-12-19T01:47:01.719Z,973.94
2022-12-19T01:48:01.675Z,974.11
2022-12-19T01:49:01.600Z,973.95
2022-12-19T01:50:01.544Z,974.07
2022-12-19T01:51:02.556Z,974.01
2022-12-19T01:52:01.435Z,973.98
2022-12-19T01:53:01.353Z,973.99
2022-12-19T01:54:01.303Z,974.04
2022-12-19T01:55:01.247Z,974.00
2022-12-19T01:57:01.098Z,974.16
2022-12-19T01:58:01.014Z,974.06
2022-12-19T01:59:06.435Z,974.14
2022-12-19T02:00:00.937Z,974.06
2022-12-19T02:01:00.884Z,974.18
2022-12-19T02:02:00.992Z,974.20
2022-12-19T02:03:00.799Z,974.36
2022-12-19T02:04:00.659Z,974.17
2022-12-19T02:05:00.599Z,974.15
2022-12-19T02:06:00.570Z,974.06
2022-12-19T02:07:03.557Z,974.15
2022-12-19T02:08:00.416Z,974.14
2022-12-19T02:09:00.347Z,974.16
2022-12-19T02:10:00.304Z,974.19
2022-12-19T02:11:00.257Z,974.24
2022-12-19T02:12:00.166Z,974.21
2022-12-19T02:13:00.117Z,974.22
2022-12-19T02:14:00.076Z,974.28
2022-12-19T02:15:02.819Z,974.18
2022-12-19T02:15:59.921Z,974.26
2022-12-19T02:16:59.918Z,974.27
2022-12-19T02:17:59.802Z,974.30
2022-12-19T02:18:59.776Z,974.30
2022-12-19T02:19:59.662Z,974.22
2022-12-19T02:20:59.613Z,974.23
2022-12-19T02:21:59.593Z,974.21
2022-12-19T02:22:59.481Z,974.23
2022-12-19T02:23:59.462Z,974.21
2022-12-19T02:24:59.396Z,974.18
2022-12-19T02:25:59.305Z,974.16
2022-12-19T02:26:59.230Z,974.13
2022-12-19T02:27:59.200Z,974.04
2022-12-19T02:28:59.125Z,974.05
2022-12-19T02:29:59.087Z,974.03
2022-12-19T02:30:59.079Z,973.95
2022-12-19T02:31:58.976Z,973.95
2022-12-19T02:32:58.900Z,973.97
2022-12-19T02:33:58.872Z,973.99
2022-12-19T02:34:58.722Z,973.96
2022-12-19T02:35:58.716Z,974.01
2022-12-19T02:36:58.631Z,973.92
2022-12-19T02:37:58.581Z,973.98
2022-12-19T02:38:58.498Z,973.93
2022-12-19T02:39:58.533Z,973.92
2022-12-19T02:40:58.413Z,973.87
2022-12-19T02:41:58.325Z,973.89
2022-12-19T02:42:58.291Z,973.94
2022-12-19T02:43:58.782Z,973.87
2022-12-19T02:44:58.159Z,973.88
2022-12-19T02:45:58.170Z,973.85
2022-12-19T02:46:58.086Z,973.83
2022-12-19T02:47:57.927Z,973.82
2022-12-19T02:48:57.920Z,973.83
2022-12-19T02:49:57.863Z,973.92
2022-12-19T02:50:57.771Z,973.90
2022-12-19T02:51:57.722Z,974.01
2022-12-19T02:52:57.647Z,973.93
2022-12-19T02:53:57.591Z,974.00
2022-12-19T02:54:57.539Z,973.99
2022-12-19T02:55:57.491Z,973.98
2022-12-19T02:56:57.391Z,973.96
2022-12-19T02:57:57.326Z,973.91
2022-12-19T02:58:57.280Z,974.06
2022-12-19T02:59:57.217Z,974.04
2022-12-19T03:00:57.235Z,973.97
2022-12-19T03:01:57.210Z,973.99
2022-12-19T03:03:01.104Z,973.90
2022-12-19T03:03:56.976Z,973.89
2022-12-19T03:04:56.943Z,973.95
2022-12-19T03:05:56.854Z,974.02
2022-12-19T03:06:56.874Z,974.05
2022-12-19T03:07:56.730Z,974.11
2022-12-19T03:08:56.674Z,974.05
2022-12-19T03:09:56.626Z,974.01
2022-12-19T03:10:56.547Z,973.98
2022-12-19T03:11:56.477Z,974.09
2022-12-19T03:12:56.410Z,974.05
2022-12-19T03:13:56.364Z,973.97
2022-12-19T03:14:56.327Z,973.97
2022-12-19T03:15:56.225Z,973.98
2022-12-19T03:16:56.238Z,973.85
2022-12-19T03:17:56.152Z,973.84
2022-12-19T03:18:56.127Z,973.85
2022-12-19T03:19:55.991Z,973.81
2022-12-19T03:20:55.957Z,973.79
2022-12-19T03:21:55.885Z,973.76
2022-12-19T03:22:55.808Z,973.76
2022-12-19T03:23:55.821Z,973.69
2022-12-19T03:24:55.684Z,973.78
2022-12-19T03:25:55.648Z,973.83
2022-12-19T03:26:55.547Z,973.82
2022-12-19T03:27:55.500Z,973.80
2022-12-19T03:28:55.459Z,973.83
2022-12-19T03:29:55.377Z,973.78
2022-12-19T03:30:55.435Z,973.85
2022-12-19T03:31:55.240Z,973.78
2022-12-19T03:32:55.203Z,973.74
2022-12-19T03:33:55.121Z,973.74
2022-12-19T03:34:55.152Z,973.76
2022-12-19T03:35:55.008Z,973.80
2022-12-19T03:36:54.984Z,973.83
2022-12-19T03:37:54.893Z,973.80
2022-12-19T03:38:54.843Z,973.81
2022-12-19T03:39:54.764Z,973.84
2022-12-19T03:40:54.708Z,973.84
2022-12-19T03:41:54.658Z,973.83
2022-12-19T03:42:54.590Z,973.92
2022-12-19T03:43:54.548Z,973.80
2022-12-19T03:44:54.487Z,973.79
2022-12-19T03:45:54.470Z,973.75
2022-12-19T03:46:54.358Z,973.83
2022-12-19T03:47:54.267Z,973.73
2022-12-19T03:48:54.211Z,973.73
2022-12-19T03:49:54.180Z,973.71
2022-12-19T03:50:54.159Z,973.77
2022-12-19T03:51:59.204Z,973.67
2022-12-19T03:52:53.968Z,973.68
2022-12-19T03:53:53.880Z,973.67
2022-12-19T03:54:53.843Z,973.81
2022-12-19T03:55:53.805Z,973.71
2022-12-19T03:56:53.731Z,973.71
2022-12-19T03:57:53.654Z,973.68
2022-12-19T03:58:53.588Z,973.64
2022-12-19T03:59:53.556Z,973.67
2022-12-19T04:00:53.458Z,973.62
2022-12-19T04:01:53.523Z,973.55
2022-12-19T04:02:53.347Z,973.59
2022-12-19T04:03:53.360Z,973.61
2022-12-19T04:04:53.229Z,973.59
2022-12-19T04:05:53.148Z,973.63
2022-12-19T04:06:53.177Z,973.58
2022-12-19T04:07:53.040Z,973.57
2022-12-19T04:08:52.997Z,973.58
2022-12-19T04:09:52.917Z,973.59
2022-12-19T04:10:52.884Z,973.60
2022-12-19T04:11:52.784Z,973.66
2022-12-19T04:12:52.729Z,973.49
2022-12-19T04:13:52.661Z,973.52
2022-12-19T04:14:52.642Z,973.42
2022-12-19T04:15:52.561Z,973.49
2022-12-19T04:16:52.490Z,973.43
2022-12-19T04:17:52.411Z,973.36
2022-12-19T04:18:52.404Z,973.31
2022-12-19T04:19:52.320Z,973.31
2022-12-19T04:20:52.234Z,973.27
2022-12-19T04:21:52.139Z,973.32
2022-12-19T04:22:52.219Z,973.27
2022-12-19T04:23:52.039Z,973.28
2022-12-19T04:24:52.003Z,973.33
2022-12-19T04:25:51.952Z,973.33
2022-12-19T04:26:51.863Z,973.29
2022-12-19T04:27:51.800Z,973.27
2022-12-19T04:28:51.762Z,973.32
2022-12-19T04:29:51.679Z,973.34
2022-12-19T04:30:51.681Z,973.32
2022-12-19T04:31:51.578Z,973.41
2022-12-19T04:32:51.495Z,973.32
2022-12-19T04:33:51.470Z,973.28
2022-12-19T04:34:51.385Z,973.34
2022-12-19T04:35:51.312Z,973.27
2022-12-19T04:36:51.281Z,973.31
2022-12-19T04:37:51.218Z,973.32
2022-12-19T04:38:51.177Z,973.32
2022-12-19T04:39:51.072Z,973.27
2022-12-19T04:40:50.981Z,973.36
2022-12-19T04:41:50.933Z,973.32
2022-12-19T04:42:50.883Z,973.26
2022-12-19T04:43:50.842Z,973.31
2022-12-19T04:44:50.750Z,973.30
2022-12-19T04:45:56.941Z,973.30
2022-12-19T04:46:50.676Z,973.28
2022-12-19T04:47:50.584Z,973.34
2022-12-19T04:48:50.508Z,973.33
2022-12-19T04:49:50.451Z,973.25
2022-12-19T04:50:50.387Z,973.29
2022-12-19T04:51:50.360Z,973.27
2022-12-19T04:52:53.262Z,973.24
2022-12-19T04:53:50.239Z,973.23
2022-12-19T04:54:50.203Z,973.19
2022-12-19T04:55:50.092Z,973.32
2022-12-19T04:56:50.015Z,973.24
2022-12-19T04:57:49.985Z,973.10
2022-12-19T04:58:49.892Z,973.13
2022-12-19T04:59:49.828Z,973.19
2022-12-19T05:00:49.779Z,973.22
2022-12-19T05:01:49.799Z,973.21
2022-12-19T05:02:49.814Z,973.09
2022-12-19T05:03:54.598Z,973.23
2022-12-19T05:04:49.544Z,973.17
2022-12-19T05:05:49.453Z,973.19
2022-12-19T05:06:49.393Z,973.20
2022-12-19T05:07:49.358Z,973.19
2022-12-19T05:08:49.326Z,973.15
2022-12-19T05:09:49.206Z,973.25
2022-12-19T05:10:49.216Z,973.08
2022-12-19T05:11:49.123Z,973.11
2022-12-19T05:12:49.018Z,973.11
2022-12-19T05:13:48.942Z,973.12
2022-12-19T05:14:48.883Z,973.10
2022-12-19T05:15:48.893Z,973.15
2022-12-19T05:16:48.769Z,973.19
2022-12-19T05:17:48.723Z,973.05
2022-12-19T05:18:48.654Z,973.18
2022-12-19T05:19:48.597Z,973.11
2022-12-19T05:20:48.548Z,973.10
2022-12-19T05:21:48.471Z,973.16
2022-12-19T05:22:48.406Z,973.09
2022-12-19T05:23:48.335Z,973.10
2022-12-19T05:24:48.281Z,973.04
2022-12-19T05:25:48.223Z,973.11
2022-12-19T05:26:48.269Z,973.20
2022-12-19T05:27:48.102Z,973.23
2022-12-19T05:28:48.031Z,973.19
2022-12-19T05:29:47.988Z,973.26
2022-12-19T05:30:52.295Z,973.26
2022-12-19T05:31:47.858Z,973.18
2022-12-19T05:32:47.814Z,973.15
2022-12-19T05:33:47.727Z,973.30
2022-12-19T05:34:47.682Z,973.23
2022-12-19T05:35:47.595Z,973.28
2022-12-19T05:36:47.531Z,973.16
2022-12-19T05:37:47.458Z,973.28
2022-12-19T05:38:47.466Z,973.22
2022-12-19T05:39:47.431Z,973.20
2022-12-19T05:40:47.311Z,973.26
2022-12-19T05:41:49.156Z,973.25
2022-12-19T05:42:47.241Z,973.22
2022-12-19T05:43:47.093Z,973.20
2022-12-19T05:44:47.081Z,973.29
2022-12-19T05:45:46.994Z,973.30
2022-12-19T05:46:46.998Z,973.24
2022-12-19T05:47:46.895Z,973.28
2022-12-19T05:48:46.785Z,973.27
2022-12-19T05:49:46.841Z,973.24
2022-12-19T05:50:46.686Z,973.16
2022-12-19T05:51:46.610Z,973.19
2022-12-19T05:52:46.545Z,973.23
2022-12-19T05:53:46.470Z,973.20
2022-12-19T05:54:46.437Z,973.23
2022-12-19T05:55:46.364Z,973.25
2022-12-19T05:56:46.309Z,973.23
2022-12-19T05:57:46.219Z,973.21
2022-12-19T05:58:46.293Z,973.19
2022-12-19T05:59:46.100Z,973.26
2022-12-19T06:00:46.042Z,973.17
2022-12-19T06:01:46.179Z,973.26
2022-12-19T06:02:46.055Z,973.26
2022-12-19T06:03:45.976Z,973.29
2022-12-19T06:04:45.850Z,973.27
2022-12-19T06:05:45.727Z,973.27
2022-12-19T06:06:45.668Z,973.33
2022-12-19T06:07:45.621Z,973.36
2022-12-19T06:08:45.579Z,973.37
2022-12-19T06:09:45.515Z,973.35
2022-12-19T06:10:45.429Z,973.33
2022-12-19T06:11:45.365Z,973.36
2022-12-19T06:12:45.325Z,973.26
2022-12-19T06:13:45.285Z,973.30
2022-12-19T06:14:45.282Z,973.34
2022-12-19T06:15:45.124Z,973.28
2022-12-19T06:16:45.287Z,973.31
2022-12-19T06:17:45.018Z,973.29
2022-12-19T06:18:45.556Z,973.33
2022-12-19T06:19:44.892Z,973.30
2022-12-19T06:20:44.832Z,973.29
2022-12-19T06:21:48.174Z,973.33
2022-12-19T06:22:44.702Z,973.32
2022-12-19T06:23:44.675Z,973.31
2022-12-19T06:24:44.577Z,973.22
2022-12-19T06:25:44.552Z,973.30
2022-12-19T06:26:44.601Z,973.35
2022-12-19T06:27:44.384Z,973.34
2022-12-19T06:28:44.296Z,973.26
2022-12-19T06:29:44.262Z,973.26
2022-12-19T06:30:44.305Z,973.16
2022-12-19T06:31:44.151Z,973.17
2022-12-19T06:32:44.111Z,973.11
2022-12-19T06:33:44.009Z,973.10
2022-12-19T06:35:43.863Z,973.13
2022-12-19T06:36:43.850Z,973.08
2022-12-19T06:37:43.768Z,973.04
2022-12-19T06:38:43.756Z,973.12
2022-12-19T06:39:43.638Z,973.09
2022-12-19T06:40:43.591Z,973.02
2022-12-19T06:41:43.525Z,973.11
2022-12-19T06:42:43.457Z,973.09
2022-12-19T06:43:43.393Z,973.10
2022-12-19T06:44:43.368Z,973.12
2022-12-19T06:45:43.287Z,973.14
2022-12-19T06:46:43.319Z,973.11
2022-12-19T06:47:43.135Z,973.08
2022-12-19T06:48:43.069Z,973.16
2022-12-19T06:49:43.064Z,973.12
2022-12-19T06:50:42.941Z,973.16
2022-12-19T06:51:42.922Z,973.24
2022-12-19T06:52:42.843Z,973.24
2022-12-19T06:53:42.761Z,973.36
2022-12-19T06:54:42.765Z,973.32
2022-12-19T06:55:42.646Z,973.32
2022-12-19T06:56:42.617Z,973.33
2022-12-19T06:57:42.531Z,973.39
2022-12-19T06:58:42.465Z,973.40
2022-12-19T06:59:42.462Z,973.35
2022-12-19T07:00:42.379Z,973.37
2022-12-19T07:01:42.434Z,973.39
2022-12-19T07:02:42.537Z,973.44
2022-12-19T07:03:42.166Z,973.38
2022-12-19T07:04:42.110Z,973.41
2022-12-19T07:05:42.088Z,973.35
2022-12-19T07:06:47.328Z,973.42
2022-12-19T07:07:41.923Z,973.46
2022-12-19T07:08:41.836Z,973.41
2022-12-19T07:09:41.794Z,973.41
2022-12-19T07:10:41.818Z,973.43
2022-12-19T07:11:41.677Z,973.40
2022-12-19T07:12:41.607Z,973.50
2022-12-19T07:13:41.539Z,973.35
2022-12-19T07:14:41.494Z,973.43
2022-12-19T07:15:41.426Z,973.45
2022-12-19T07:16:41.558Z,973.39
2022-12-19T07:17:41.314Z,973.40
2022-12-19T07:18:41.337Z,973.33
2022-12-19T07:19:41.204Z,973.42
2022-12-19T07:20:45.029Z,973.29
2022-12-19T07:21:41.078Z,973.34
2022-12-19T07:22:41.032Z,973.48
2022-12-19T07:23:40.947Z,973.39
2022-12-19T07:24:40.908Z,973.35
2022-12-19T07:25:40.819Z,973.27
2022-12-19T07:26:40.740Z,973.36
2022-12-19T07:27:40.719Z,973.41
2022-12-19T07:28:40.611Z,973.38
2022-12-19T07:29:40.564Z,973.44
2022-12-19T07:30:40.516Z,973.46
2022-12-19T07:31:40.472Z,973.39
2022-12-19T07:32:40.421Z,973.42
2022-12-19T07:33:40.319Z,973.47
2022-12-19T07:34:40.329Z,973.47
2022-12-19T07:35:40.203Z,973.48
2022-12-19T07:36:40.162Z,973.50
2022-12-19T07:37:40.068Z,973.51
2022-12-19T07:38:40.032Z,973.48
2022-12-19T07:39:39.948Z,973.45
2022-12-19T07:40:39.887Z,973.47
2022-12-19T07:41:39.844Z,973.54
2022-12-19T07:42:39.747Z,973.49
2022-12-19T07:43:39.770Z,973.48
2022-12-19T07:44:43.259Z,973.56
2022-12-19T07:45:39.661Z,973.53
2022-12-19T07:46:39.547Z,973.57
2022-12-19T07:47:39.455Z,973.58
2022-12-19T07:48:40.239Z,973.60
2022-12-19T07:49:39.371Z,973.51
2022-12-19T07:50:39.393Z,973.54
2022-12-19T07:51:39.385Z,973.58
2022-12-19T07:52:39.706Z,973.50
2022-12-19T07:53:39.132Z,973.53
2022-12-19T07:54:39.959Z,973.55
2022-12-19T07:55:38.957Z,973.57
2022-12-19T07:56:38.913Z,973.50
2022-12-19T07:57:38.860Z,973.51
2022-12-19T07:58:38.819Z,973.57
2022-12-19T07:59:39.502Z,973.55
2022-12-19T08:00:38.674Z,973.56
2022-12-19T08:01:38.703Z,973.60
2022-12-19T08:02:38.591Z,973.58
2022-12-19T08:03:38.469Z,973.60
2022-12-19T08:04:38.455Z,973.57
2022-12-19T08:05:38.382Z,973.59
2022-12-19T08:06:41.457Z,973.55
2022-12-19T08:07:38.246Z,973.56
2022-12-19T08:08:38.216Z,973.53
2022-12-19T08:09:38.113Z,973.47
2022-12-19T08:10:38.034Z,973.47
2022-12-19T08:11:38.017Z,973.44
2022-12-19T08:12:38.047Z,973.41
2022-12-19T08:13:43.145Z,973.48
2022-12-19T08:14:37.815Z,973.50
2022-12-19T08:15:37.749Z,973.51
2022-12-19T08:17:10.903Z,973.53
2022-12-19T08:17:37.769Z,973.58
2022-12-19T08:18:37.537Z,973.52
2022-12-19T08:19:37.496Z,973.58
2022-12-19T08:20:37.458Z,973.54
2022-12-19T08:21:37.393Z,973.68
2022-12-19T08:22:37.422Z,973.65
2022-12-19T08:23:37.246Z,973.64
2022-12-19T08:24:37.204Z,973.65
2022-12-19T08:25:37.154Z,973.60
2022-12-19T08:26:41.782Z,973.64
2022-12-19T08:27:37.018Z,973.65
2022-12-19T08:28:36.986Z,973.63
2022-12-19T08:29:36.912Z,973.72
2022-12-19T08:30:36.874Z,973.64
2022-12-19T08:31:36.772Z,973.69
2022-12-19T08:32:36.699Z,973.70
2022-12-19T08:33:36.668Z,973.73
2022-12-19T08:34:36.680Z,973.78
2022-12-19T08:35:36.544Z,973.83
2022-12-19T08:36:36.459Z,973.84
2022-12-19T08:37:36.381Z,973.79
2022-12-19T08:38:36.625Z,973.73
2022-12-19T08:39:36.303Z,973.73
2022-12-19T08:40:36.226Z,973.77
2022-12-19T08:41:36.739Z,973.78
2022-12-19T08:42:36.071Z,973.81
2022-12-19T08:43:36.022Z,973.78
2022-12-19T08:44:35.993Z,973.78
2022-12-19T08:45:35.925Z,973.79
2022-12-19T08:46:35.908Z,973.80
2022-12-19T08:47:35.778Z,973.68
2022-12-19T08:48:35.731Z,973.69
2022-12-19T08:49:35.757Z,973.73
2022-12-19T08:50:35.577Z,973.76
2022-12-19T08:51:35.567Z,973.73
2022-12-19T08:52:35.482Z,973.67
2022-12-19T08:53:35.449Z,973.58
2022-12-19T08:54:35.463Z,973.52
2022-12-19T08:55:35.281Z,973.53
2022-12-19T08:56:35.213Z,973.57
2022-12-19T08:57:35.216Z,973.59
2022-12-19T08:58:35.086Z,973.55
2022-12-19T08:59:35.061Z,973.55
2022-12-19T09:00:35.010Z,973.56
2022-12-19T09:01:35.021Z,973.45
2022-12-19T09:02:35.071Z,973.45
2022-12-19T09:03:49.050Z,973.49
2022-12-19T09:06:00.267Z,973.46
2022-12-19T09:06:02.150Z,973.48
2022-12-19T09:06:34.659Z,973.38
2022-12-19T09:07:34.593Z,973.41
2022-12-19T09:08:34.538Z,973.46
2022-12-19T09:09:34.455Z,973.51
2022-12-19T09:10:34.454Z,973.54
2022-12-19T09:11:35.371Z,973.47
2022-12-19T09:12:34.268Z,973.48
2022-12-19T09:13:34.182Z,973.47
2022-12-19T09:14:34.139Z,973.47
2022-12-19T09:15:34.082Z,973.47
2022-12-19T09:16:34.069Z,973.41
2022-12-19T09:17:33.951Z,973.45
2022-12-19T09:18:33.920Z,973.39
2022-12-19T09:19:33.860Z,973.41
2022-12-19T09:20:33.762Z,973.40
2022-12-19T09:21:33.699Z,973.44
2022-12-19T09:22:33.679Z,973.31
2022-12-19T09:23:33.570Z,973.24
2022-12-19T09:24:33.532Z,973.28
2022-12-19T09:25:33.625Z,973.37
2022-12-19T09:26:33.797Z,973.33
2022-12-19T09:28:01.310Z,973.38
2022-12-19T09:28:33.281Z,973.31
2022-12-19T09:29:35.501Z,973.37
2022-12-19T09:30:33.346Z,973.33
2022-12-19T09:31:33.086Z,973.37
2022-12-19T09:32:33.075Z,973.33
2022-12-19T09:33:35.529Z,973.31
2022-12-19T09:34:37.143Z,973.38
2022-12-19T09:35:32.855Z,973.35
2022-12-19T09:36:32.800Z,973.38
2022-12-19T09:37:32.765Z,973.26
2022-12-19T09:38:32.676Z,973.39
2022-12-19T09:39:32.603Z,973.39
2022-12-19T09:40:32.578Z,973.43
2022-12-19T09:41:32.484Z,973.41
2022-12-19T09:42:32.541Z,973.34
2022-12-19T09:43:36.556Z,973.41
2022-12-19T09:44:32.306Z,973.32
2022-12-19T09:45:33.097Z,973.37
2022-12-19T09:46:32.253Z,973.34
2022-12-19T09:47:32.128Z,973.29
2022-12-19T09:48:32.054Z,973.35
2022-12-19T09:49:31.999Z,973.29
2022-12-19T09:50:31.953Z,973.34
2022-12-19T09:51:31.871Z,973.33
2022-12-19T09:52:33.103Z,973.34
2022-12-19T09:53:31.823Z,973.31
2022-12-19T09:54:31.701Z,973.26
2022-12-19T09:55:31.630Z,973.34
2022-12-19T09:56:40.209Z,973.34
2022-12-19T09:57:31.522Z,973.46
2022-12-19T09:58:31.451Z,973.38
2022-12-19T09:59:39.760Z,973.34
2022-12-19T10:00:31.329Z,973.32
2022-12-19T10:01:31.360Z,973.29
2022-12-19T10:02:31.427Z,973.32
2022-12-19T10:03:32.290Z,973.31
2022-12-19T10:04:31.103Z,973.34
2022-12-19T10:06:32.987Z,973.32
2022-12-19T10:07:11.698Z,973.33
2022-12-19T10:08:01.308Z,973.25
2022-12-19T10:08:30.869Z,973.31
2022-12-19T10:10:18.633Z,973.28
2022-12-19T10:12:35.988Z,973.29
2022-12-19T10:12:44.327Z,973.31
2022-12-19T10:12:45.128Z,973.30
2022-12-19T10:13:30.546Z,973.29
2022-12-19T10:14:30.615Z,973.28
2022-12-19T10:15:30.430Z,973.24
2022-12-19T10:16:30.398Z,973.26
2022-12-19T10:17:30.301Z,973.24
2022-12-19T10:18:30.380Z,973.21
2022-12-19T10:19:30.179Z,973.30
2022-12-19T10:20:30.095Z,973.20
2022-12-19T10:21:58.963Z,973.24
2022-12-19T10:22:29.983Z,973.13
2022-12-19T10:23:29.907Z,973.11
2022-12-19T10:24:33.236Z,973.16
2022-12-19T10:25:29.809Z,973.14
2022-12-19T10:26:30.258Z,973.12
2022-12-19T10:27:29.687Z,973.10
2022-12-19T10:28:29.605Z,973.04
2022-12-19T10:29:29.551Z,973.14
2022-12-19T10:30:31.960Z,973.07
2022-12-19T10:31:29.528Z,973.07
2022-12-19T10:32:29.407Z,973.13
2022-12-19T10:33:29.319Z,973.16
2022-12-19T10:34:29.299Z,973.18
2022-12-19T10:35:29.229Z,973.07
2022-12-19T10:36:55.942Z,973.21
2022-12-19T10:37:37.701Z,973.14
2022-12-19T10:38:29.067Z,973.16
2022-12-19T10:39:28.981Z,973.25
2022-12-19T10:40:29.146Z,973.19
2022-12-19T10:41:28.830Z,973.15
2022-12-19T10:42:28.804Z,973.20
2022-12-19T10:43:33.938Z,973.14
2022-12-19T10:44:28.664Z,973.20
2022-12-19T10:45:28.591Z,973.24
2022-12-19T10:46:28.690Z,973.09
2022-12-19T10:47:28.491Z,973.10
2022-12-19T10:48:30.639Z,973.11
2022-12-19T10:49:28.414Z,973.08
2022-12-19T10:50:28.318Z,973.13
2022-12-19T10:51:28.227Z,973.14
2022-12-19T10:52:28.209Z,973.08
2022-12-19T10:53:28.112Z,973.12
2022-12-19T10:54:33.656Z,973.13
2022-12-19T10:55:28.039Z,973.18
2022-12-19T10:56:34.928Z,973.10
2022-12-19T10:57:27.896Z,973.16
2022-12-19T10:58:27.875Z,973.10
2022-12-19T10:59:27.796Z,973.10
2022-12-19T11:00:27.878Z,973.01
2022-12-19T11:01:27.758Z,973.02
2022-12-19T11:02:27.745Z,972.99
2022-12-19T11:03:27.658Z,973.06
2022-12-19T11:04:27.567Z,973.08
2022-12-19T11:05:27.439Z,972.89
2022-12-19T11:06:27.330Z,972.89
2022-12-19T11:07:27.299Z,972.86
2022-12-19T11:08:27.243Z,972.90
2022-12-19T11:09:27.148Z,972.84
2022-12-19T11:12:18.907Z,972.80
2022-12-19T11:13:22.619Z,972.70
2022-12-19T11:16:44.933Z,972.67
2022-12-19T11:18:13.284Z,972.69
2022-12-19T11:18:18.613Z,972.68
2022-12-19T11:20:26.997Z,972.57
2022-12-19T11:22:24.727Z,972.60
2022-12-19T11:22:34.710Z,972.67
2022-12-19T11:28:06.751Z,972.65
2022-12-19T11:29:32.232Z,972.71
2022-12-19T11:29:34.345Z,972.64
2022-12-19T11:29:37.220Z,972.70
2022-12-19T11:29:43.948Z,972.63
2022-12-19T11:29:44.963Z,972.67
2022-12-19T11:29:45.792Z,972.63
2022-12-19T11:30:09.325Z,972.71
2022-12-19T11:30:38.373Z,972.72
2022-12-19T11:30:46.771Z,972.71
2022-12-19T11:30:46.944Z,972.73
2022-12-19T11:32:01.665Z,972.70
2022-12-19T11:32:44.198Z,972.60
2022-12-19T11:33:25.703Z,972.62
2022-12-19T11:34:25.742Z,972.60
2022-12-19T11:35:37.134Z,972.55
2022-12-19T11:36:25.484Z,972.54
2022-12-19T11:37:25.423Z,972.55
2022-12-19T11:38:25.389Z,972.62
2022-12-19T11:39:25.333Z,972.64
2022-12-19T11:40:25.267Z,972.51
2022-12-19T11:41:25.180Z,972.57
2022-12-19T11:42:25.128Z,972.59
2022-12-19T11:43:44.048Z,972.55
2022-12-19T11:44:25.018Z,972.59
2022-12-19T11:45:24.948Z,972.50
2022-12-19T11:46:24.900Z,972.58
2022-12-19T11:47:24.839Z,972.55
2022-12-19T11:48:24.754Z,972.48
2022-12-19T11:49:24.734Z,972.48
2022-12-19T11:50:24.763Z,972.53
2022-12-19T11:51:24.568Z,972.42
2022-12-19T11:53:02.239Z,972.53
2022-12-19T11:53:24.468Z,972.49
2022-12-19T11:54:24.435Z,972.44
2022-12-19T11:55:24.325Z,972.47
2022-12-19T11:56:24.301Z,972.51
2022-12-19T11:57:24.238Z,972.47
2022-12-19T11:58:24.166Z,972.46
2022-12-19T11:59:24.116Z,972.54
2022-12-19T12:00:24.059Z,972.45
2022-12-19T12:01:24.144Z,972.35
2022-12-19T12:02:23.943Z,972.45
2022-12-19T12:03:23.977Z,972.33
2022-12-19T12:04:23.872Z,972.35
2022-12-19T12:05:23.814Z,972.36
2022-12-19T12:06:29.542Z,972.32
2022-12-19T12:08:36.592Z,972.24
2022-12-19T12:09:31.134Z,972.28
2022-12-19T12:11:43.998Z,972.25
2022-12-19T12:13:55.484Z,972.28
2022-12-19T12:17:33.209Z,972.11
2022-12-19T12:19:39.297Z,972.15
2022-12-19T12:24:15.039Z,972.12
2022-12-19T12:28:07.060Z,972.07
2022-12-19T12:29:26.468Z,972.11
2022-12-19T12:29:40.690Z,972.10
2022-12-19T12:31:01.414Z,972.12
2022-12-19T12:31:02.138Z,972.05
2022-12-19T12:31:12.177Z,972.05
2022-12-19T12:31:13.429Z,972.07
2022-12-19T12:31:16.640Z,971.99
2022-12-19T12:31:28.340Z,972.11
2022-12-19T12:31:41.883Z,972.07
2022-12-19T12:31:43.273Z,972.09
2022-12-19T12:31:45.497Z,971.97
2022-12-19T12:31:57.234Z,971.90
2022-12-19T12:32:03.750Z,971.90
2022-12-19T12:32:05.070Z,971.98
2022-12-19T12:35:07.037Z,972.08
2022-12-19T12:35:31.715Z,971.95
2022-12-19T12:35:40.505Z,971.90